Airport View

Enter AWOS ICAO identifier for current METAR.

ex. KFNL

KCNO 250153Z AUTO 25012KT 10SM CLR 25/13 A2986 RMK AO2 SLP107 T02500128

25 May 2020 02:27

Phone: 909-393-5823

Other Area AWOS: KAJO - KONT - KRAL - KPOC

TAF KONT 242335Z 2500/2606 25011G18KT P6SM FEW250 FM250400 VRB04KT P6SM FEW250 FM252000 25011G18KT P6SM SKC FM260430 VRB05KT P6SM SKC